sensor_id;sensor_type;location;lat;lon;timestamp;temperature;humidity
14850;DHT22;7517;48.400;11.770;2023-09-07T00:00:07;21.60;68.80
14850;DHT22;7517;48.400;11.770;2023-09-07T00:02:36;21.60;68.70
14850;DHT22;7517;48.400;11.770;2023-09-07T00:05:05;21.50;68.50
14850;DHT22;7517;48.400;11.770;2023-09-07T00:07:33;21.50;68.50
14850;DHT22;7517;48.400;11.770;2023-09-07T00:10:00;21.60;68.60
14850;DHT22;7517;48.400;11.770;2023-09-07T00:12:30;21.50;68.50
14850;DHT22;7517;48.400;11.770;2023-09-07T00:14:57;21.50;68.50
14850;DHT22;7517;48.400;11.770;2023-09-07T00:17:25;21.50;68.50
14850;DHT22;7517;48.400;11.770;2023-09-07T00:19:53;21.50;68.40
14850;DHT22;7517;48.400;11.770;2023-09-07T00:22:22;21.50;68.40
14850;DHT22;7517;48.400;11.770;2023-09-07T00:24:51;21.50;68.40
14850;DHT22;7517;48.400;11.770;2023-09-07T00:27:18;21.50;69.20
14850;DHT22;7517;48.400;11.770;2023-09-07T00:29:48;21.50;68.40
14850;DHT22;7517;48.400;11.770;2023-09-07T00:32:15;21.50;68.30
14850;DHT22;7517;48.400;11.770;2023-09-07T00:34:42;21.50;68.30
14850;DHT22;7517;48.400;11.770;2023-09-07T00:37:10;21.50;68.30
14850;DHT22;7517;48.400;11.770;2023-09-07T00:39:37;21.50;68.30
14850;DHT22;7517;48.400;11.770;2023-09-07T00:42:04;21.50;68.40
14850;DHT22;7517;48.400;11.770;2023-09-07T00:44:32;21.50;68.40
14850;DHT22;7517;48.400;11.770;2023-09-07T00:47:01;21.40;68.30
14850;DHT22;7517;48.400;11.770;2023-09-07T00:49:28;21.40;68.40
14850;DHT22;7517;48.400;11.770;2023-09-07T00:51:55;21.40;68.40
14850;DHT22;7517;48.400;11.770;2023-09-07T00:54:23;21.40;68.40
14850;DHT22;7517;48.400;11.770;2023-09-07T00:56:50;21.40;68.50
14850;DHT22;7517;48.400;11.770;2023-09-07T00:59:18;21.30;68.50
14850;DHT22;7517;48.400;11.770;2023-09-07T01:01:45;21.30;68.50
14850;DHT22;7517;48.400;11.770;2023-09-07T01:04:14;21.30;68.30
14850;DHT22;7517;48.400;11.770;2023-09-07T01:06:45;21.30;68.30
14850;DHT22;7517;48.400;11.770;2023-09-07T01:09:19;21.30;68.50
14850;DHT22;7517;48.400;11.770;2023-09-07T01:11:49;21.30;68.40
14850;DHT22;7517;48.400;11.770;2023-09-07T01:14:18;21.20;68.40
14850;DHT22;7517;48.400;11.770;2023-09-07T01:16:45;21.20;68.50
14850;DHT22;7517;48.400;11.770;2023-09-07T01:19:15;21.20;68.50
14850;DHT22;7517;48.400;11.770;2023-09-07T01:21:44;21.20;68.50
14850;DHT22;7517;48.400;11.770;2023-09-07T01:24:14;21.20;68.50
14850;DHT22;7517;48.400;11.770;2023-09-07T01:26:42;21.10;68.40
14850;DHT22;7517;48.400;11.770;2023-09-07T01:29:14;21.10;68.50
14850;DHT22;7517;48.400;11.770;2023-09-07T01:31:43;21.10;68.50
14850;DHT22;7517;48.400;11.770;2023-09-07T01:34:10;21.10;68.70
14850;DHT22;7517;48.400;11.770;2023-09-07T01:36:38;21.00;68.50
14850;DHT22;7517;48.400;11.770;2023-09-07T01:39:08;21.00;68.60
14850;DHT22;7517;48.400;11.770;2023-09-07T01:41:35;20.90;68.60
14850;DHT22;7517;48.400;11.770;2023-09-07T01:44:03;20.90;68.70
14850;DHT22;7517;48.400;11.770;2023-09-07T01:46:31;20.90;68.80
14850;DHT22;7517;48.400;11.770;2023-09-07T01:48:58;20.80;68.70
14850;DHT22;7517;48.400;11.770;2023-09-07T01:51:25;20.80;68.60
14850;DHT22;7517;48.400;11.770;2023-09-07T01:53:54;20.80;68.70
14850;DHT22;7517;48.400;11.770;2023-09-07T01:56:23;20.80;68.80
14850;DHT22;7517;48.400;11.770;2023-09-07T01:58:50;20.70;68.90
14850;DHT22;7517;48.400;11.770;2023-09-07T02:01:24;20.70;68.90
14850;DHT22;7517;48.400;11.770;2023-09-07T02:03:55;20.60;68.90
14850;DHT22;7517;48.400;11.770;2023-09-07T02:06:22;20.60;68.90
14850;DHT22;7517;48.400;11.770;2023-09-07T02:08:49;20.60;69.00
14850;DHT22;7517;48.400;11.770;2023-09-07T02:11:17;20.60;69.00
14850;DHT22;7517;48.400;11.770;2023-09-07T02:13:47;20.50;69.10
14850;DHT22;7517;48.400;11.770;2023-09-07T02:16:15;20.50;69.20
14850;DHT22;7517;48.400;11.770;2023-09-07T02:18:44;20.40;69.20
14850;DHT22;7517;48.400;11.770;2023-09-07T02:21:12;20.40;69.20
14850;DHT22;7517;48.400;11.770;2023-09-07T02:23:40;20.40;69.20
14850;DHT22;7517;48.400;11.770;2023-09-07T02:26:07;20.40;69.30
14850;DHT22;7517;48.400;11.770;2023-09-07T02:28:34;20.30;69.40
14850;DHT22;7517;48.400;11.770;2023-09-07T02:31:06;20.30;69.40
14850;DHT22;7517;48.400;11.770;2023-09-07T02:33:33;20.20;69.40
14850;DHT22;7517;48.400;11.770;2023-09-07T02:36:01;20.20;69.50
14850;DHT22;7517;48.400;11.770;2023-09-07T02:38:29;20.20;69.50
14850;DHT22;7517;48.400;11.770;2023-09-07T02:40:57;20.10;69.60
14850;DHT22;7517;48.400;11.770;2023-09-07T02:43:24;20.10;69.60
14850;DHT22;7517;48.400;11.770;2023-09-07T02:45:51;20.10;69.80
14850;DHT22;7517;48.400;11.770;2023-09-07T02:48:20;20.00;69.80
14850;DHT22;7517;48.400;11.770;2023-09-07T02:50:48;20.00;69.90
14850;DHT22;7517;48.400;11.770;2023-09-07T02:53:16;20.00;69.90
14850;DHT22;7517;48.400;11.770;2023-09-07T02:55:43;19.90;69.90
14850;DHT22;7517;48.400;11.770;2023-09-07T02:58:10;20.00;70.00
14850;DHT22;7517;48.400;11.770;2023-09-07T03:00:41;19.90;70.10
14850;DHT22;7517;48.400;11.770;2023-09-07T03:03:09;19.90;70.20
14850;DHT22;7517;48.400;11.770;2023-09-07T03:05:39;19.90;70.20
14850;DHT22;7517;48.400;11.770;2023-09-07T03:08:06;19.80;70.30
14850;DHT22;7517;48.400;11.770;2023-09-07T03:10:35;19.90;70.30
14850;DHT22;7517;48.400;11.770;2023-09-07T03:13:03;19.80;70.40
14850;DHT22;7517;48.400;11.770;2023-09-07T03:15:31;19.80;70.40
14850;DHT22;7517;48.400;11.770;2023-09-07T03:17:58;19.80;70.50
14850;DHT22;7517;48.400;11.770;2023-09-07T03:20:26;19.80;70.50
14850;DHT22;7517;48.400;11.770;2023-09-07T03:22:55;19.70;70.40
14850;DHT22;7517;48.400;11.770;2023-09-07T03:25:23;19.80;70.50
14850;DHT22;7517;48.400;11.770;2023-09-07T03:27:50;19.70;70.50
14850;DHT22;7517;48.400;11.770;2023-09-07T03:30:18;19.70;70.60
14850;DHT22;7517;48.400;11.770;2023-09-07T03:32:45;19.70;70.70
14850;DHT22;7517;48.400;11.770;2023-09-07T03:35:13;19.70;70.70
14850;DHT22;7517;48.400;11.770;2023-09-07T03:37:42;19.60;70.60
14850;DHT22;7517;48.400;11.770;2023-09-07T03:40:11;19.60;70.60
14850;DHT22;7517;48.400;11.770;2023-09-07T03:42:38;19.60;70.70
14850;DHT22;7517;48.400;11.770;2023-09-07T03:45:06;19.60;70.70
14850;DHT22;7517;48.400;11.770;2023-09-07T03:47:33;19.50;70.70
14850;DHT22;7517;48.400;11.770;2023-09-07T03:50:01;19.50;70.80
14850;DHT22;7517;48.400;11.770;2023-09-07T03:52:28;19.50;70.90
14850;DHT22;7517;48.400;11.770;2023-09-07T03:54:56;19.50;71.00
14850;DHT22;7517;48.400;11.770;2023-09-07T03:57:25;19.50;71.00
14850;DHT22;7517;48.400;11.770;2023-09-07T03:59:53;19.40;71.10
14850;DHT22;7517;48.400;11.770;2023-09-07T04:02:21;19.40;71.00
14850;DHT22;7517;48.400;11.770;2023-09-07T04:04:51;19.40;71.00
14850;DHT22;7517;48.400;11.770;2023-09-07T04:07:19;19.40;71.10
14850;DHT22;7517;48.400;11.770;2023-09-07T04:09:47;19.40;71.20
14850;DHT22;7517;48.400;11.770;2023-09-07T04:12:16;19.30;71.10
14850;DHT22;7517;48.400;11.770;2023-09-07T04:14:45;19.30;71.10
14850;DHT22;7517;48.400;11.770;2023-09-07T04:17:13;19.30;71.10
14850;DHT22;7517;48.400;11.770;2023-09-07T04:19:40;19.30;71.10
14850;DHT22;7517;48.400;11.770;2023-09-07T04:22:08;19.30;71.10
14850;DHT22;7517;48.400;11.770;2023-09-07T04:24:37;19.30;71.20
14850;DHT22;7517;48.400;11.770;2023-09-07T04:27:04;19.20;71.30
14850;DHT22;7517;48.400;11.770;2023-09-07T04:29:31;19.20;72.00
14850;DHT22;7517;48.400;11.770;2023-09-07T04:32:00;19.20;71.30
14850;DHT22;7517;48.400;11.770;2023-09-07T04:34:27;19.20;71.40
14850;DHT22;7517;48.400;11.770;2023-09-07T04:36:54;19.20;71.50
14850;DHT22;7517;48.400;11.770;2023-09-07T04:39:22;19.20;71.60
14850;DHT22;7517;48.400;11.770;2023-09-07T04:41:49;19.20;71.60
14850;DHT22;7517;48.400;11.770;2023-09-07T04:44:18;19.20;71.60
14850;DHT22;7517;48.400;11.770;2023-09-07T04:46:46;19.20;71.60
14850;DHT22;7517;48.400;11.770;2023-09-07T04:49:15;19.20;71.50
14850;DHT22;7517;48.400;11.770;2023-09-07T04:51:42;19.20;71.40
14850;DHT22;7517;48.400;11.770;2023-09-07T04:54:09;19.20;71.30
14850;DHT22;7517;48.400;11.770;2023-09-07T04:56:36;19.10;71.30
14850;DHT22;7517;48.400;11.770;2023-09-07T04:59:03;19.20;71.40
14850;DHT22;7517;48.400;11.770;2023-09-07T05:01:31;19.20;71.40
14850;DHT22;7517;48.400;11.770;2023-09-07T05:03:58;19.20;71.40
14850;DHT22;7517;48.400;11.770;2023-09-07T05:06:28;19.20;72.10
14850;DHT22;7517;48.400;11.770;2023-09-07T05:08:55;19.20;71.40
14850;DHT22;7517;48.400;11.770;2023-09-07T05:11:23;19.20;71.30
14850;DHT22;7517;48.400;11.770;2023-09-07T05:13:50;19.10;71.30
14850;DHT22;7517;48.400;11.770;2023-09-07T05:16:17;19.10;71.20
14850;DHT22;7517;48.400;11.770;2023-09-07T05:18:44;19.10;71.30
14850;DHT22;7517;48.400;11.770;2023-09-07T05:21:12;19.10;71.30
14850;DHT22;7517;48.400;11.770;2023-09-07T05:23:42;19.10;71.40
14850;DHT22;7517;48.400;11.770;2023-09-07T05:26:10;19.10;71.50
14850;DHT22;7517;48.400;11.770;2023-09-07T05:28:39;19.10;71.50
14850;DHT22;7517;48.400;11.770;2023-09-07T05:31:07;19.10;71.60
14850;DHT22;7517;48.400;11.770;2023-09-07T05:33:35;19.10;71.70
14850;DHT22;7517;48.400;11.770;2023-09-07T05:36:02;19.00;71.70
14850;DHT22;7517;48.400;11.770;2023-09-07T05:38:29;19.00;71.80
14850;DHT22;7517;48.400;11.770;2023-09-07T05:40:58;19.00;71.90
14850;DHT22;7517;48.400;11.770;2023-09-07T05:43:26;19.00;72.00
14850;DHT22;7517;48.400;11.770;2023-09-07T05:45:53;19.00;72.10
14850;DHT22;7517;48.400;11.770;2023-09-07T05:48:20;19.00;72.20
14850;DHT22;7517;48.400;11.770;2023-09-07T05:50:48;19.00;72.30
14850;DHT22;7517;48.400;11.770;2023-09-07T05:53:15;19.10;72.50
14850;DHT22;7517;48.400;11.770;2023-09-07T05:55:42;19.00;72.50
14850;DHT22;7517;48.400;11.770;2023-09-07T05:58:13;19.10;72.70
14850;DHT22;7517;48.400;11.770;2023-09-07T06:00:40;19.10;72.80
14850;DHT22;7517;48.400;11.770;2023-09-07T06:03:08;19.10;72.90
14850;DHT22;7517;48.400;11.770;2023-09-07T06:05:36;19.10;73.00
14850;DHT22;7517;48.400;11.770;2023-09-07T06:08:05;19.10;73.10
14850;DHT22;7517;48.400;11.770;2023-09-07T06:10:33;19.10;73.10
14850;DHT22;7517;48.400;11.770;2023-09-07T06:13:01;19.10;73.10
14850;DHT22;7517;48.400;11.770;2023-09-07T06:15:30;19.20;73.20
14850;DHT22;7517;48.400;11.770;2023-09-07T06:17:58;19.20;73.30
14850;DHT22;7517;48.400;11.770;2023-09-07T06:20:25;19.20;73.40
14850;DHT22;7517;48.400;11.770;2023-09-07T06:22:52;19.30;73.60
14850;DHT22;7517;48.400;11.770;2023-09-07T06:25:20;19.30;73.60
14850;DHT22;7517;48.400;11.770;2023-09-07T06:27:48;19.30;73.70
14850;DHT22;7517;48.400;11.770;2023-09-07T06:30:16;19.30;73.70
14850;DHT22;7517;48.400;11.770;2023-09-07T06:32:45;19.30;73.70
14850;DHT22;7517;48.400;11.770;2023-09-07T06:35:14;19.40;74.00
14850;DHT22;7517;48.400;11.770;2023-09-07T06:37:43;19.40;74.10
14850;DHT22;7517;48.400;11.770;2023-09-07T06:40:10;19.50;74.30
14850;DHT22;7517;48.400;11.770;2023-09-07T06:42:39;19.50;74.30
14850;DHT22;7517;48.400;11.770;2023-09-07T06:45:07;19.60;74.30
14850;DHT22;7517;48.400;11.770;2023-09-07T06:47:35;19.60;74.50
14850;DHT22;7517;48.400;11.770;2023-09-07T06:50:05;19.70;74.40
14850;DHT22;7517;48.400;11.770;2023-09-07T06:52:32;19.70;74.50
14850;DHT22;7517;48.400;11.770;2023-09-07T06:54:59;19.80;74.60
14850;DHT22;7517;48.400;11.770;2023-09-07T06:57:27;19.80;74.60
14850;DHT22;7517;48.400;11.770;2023-09-07T06:59:54;19.90;74.50
14850;DHT22;7517;48.400;11.770;2023-09-07T07:02:21;20.00;74.50
14850;DHT22;7517;48.400;11.770;2023-09-07T07:04:49;20.00;74.50
14850;DHT22;7517;48.400;11.770;2023-09-07T07:07:17;20.10;74.50
14850;DHT22;7517;48.400;11.770;2023-09-07T07:09:45;20.10;74.60
14850;DHT22;7517;48.400;11.770;2023-09-07T07:12:12;20.20;74.60
14850;DHT22;7517;48.400;11.770;2023-09-07T07:14:39;20.30;74.60
14850;DHT22;7517;48.400;11.770;2023-09-07T07:17:07;20.30;74.70
14850;DHT22;7517;48.400;11.770;2023-09-07T07:19:34;20.40;74.90
14850;DHT22;7517;48.400;11.770;2023-09-07T07:22:01;20.50;74.60
14850;DHT22;7517;48.400;11.770;2023-09-07T07:24:30;20.60;74.70
14850;DHT22;7517;48.400;11.770;2023-09-07T07:26:58;20.70;74.80
14850;DHT22;7517;48.400;11.770;2023-09-07T07:29:25;20.80;74.80
14850;DHT22;7517;48.400;11.770;2023-09-07T07:31:57;20.90;75.00
14850;DHT22;7517;48.400;11.770;2023-09-07T07:34:33;21.00;75.00
14850;DHT22;7517;48.400;11.770;2023-09-07T07:37:03;21.10;75.00
14850;DHT22;7517;48.400;11.770;2023-09-07T07:39:33;21.20;74.50
14850;DHT22;7517;48.400;11.770;2023-09-07T07:42:00;21.30;74.50
14850;DHT22;7517;48.400;11.770;2023-09-07T07:44:28;21.40;74.40
14850;DHT22;7517;48.400;11.770;2023-09-07T07:46:56;21.50;74.40
14850;DHT22;7517;48.400;11.770;2023-09-07T07:49:23;21.70;74.30
14850;DHT22;7517;48.400;11.770;2023-09-07T07:51:50;21.70;74.30
14850;DHT22;7517;48.400;11.770;2023-09-07T07:54:20;21.90;74.00
14850;DHT22;7517;48.400;11.770;2023-09-07T07:56:51;22.00;73.70
14850;DHT22;7517;48.400;11.770;2023-09-07T07:59:19;22.10;73.70
14850;DHT22;7517;48.400;11.770;2023-09-07T08:01:46;22.20;73.50
14850;DHT22;7517;48.400;11.770;2023-09-07T08:04:14;22.30;73.30
14850;DHT22;7517;48.400;11.770;2023-09-07T08:06:41;22.50;73.20
14850;DHT22;7517;48.400;11.770;2023-09-07T08:09:08;22.60;73.10
14850;DHT22;7517;48.400;11.770;2023-09-07T08:11:35;22.70;72.80
14850;DHT22;7517;48.400;11.770;2023-09-07T08:14:05;22.80;73.10
14850;DHT22;7517;48.400;11.770;2023-09-07T08:16:32;22.90;72.40
14850;DHT22;7517;48.400;11.770;2023-09-07T08:19:00;23.00;72.30
14850;DHT22;7517;48.400;11.770;2023-09-07T08:21:27;23.20;72.30
14850;DHT22;7517;48.400;11.770;2023-09-07T08:23:54;23.30;72.00
14850;DHT22;7517;48.400;11.770;2023-09-07T08:26:22;23.40;72.00
14850;DHT22;7517;48.400;11.770;2023-09-07T08:28:49;23.50;71.90
14850;DHT22;7517;48.400;11.770;2023-09-07T08:31:17;23.60;71.80
14850;DHT22;7517;48.400;11.770;2023-09-07T08:33:47;23.70;71.10
14850;DHT22;7517;48.400;11.770;2023-09-07T08:36:16;23.90;71.00
14850;DHT22;7517;48.400;11.770;2023-09-07T08:38:48;24.00;70.80
14850;DHT22;7517;48.400;11.770;2023-09-07T08:41:20;24.10;70.40
14850;DHT22;7517;48.400;11.770;2023-09-07T08:43:53;24.20;70.20
14850;DHT22;7517;48.400;11.770;2023-09-07T08:46:24;24.30;69.60
14850;DHT22;7517;48.400;11.770;2023-09-07T08:48:52;24.40;69.80
14850;DHT22;7517;48.400;11.770;2023-09-07T08:51:25;24.60;69.80
14850;DHT22;7517;48.400;11.770;2023-09-07T08:53:53;24.70;70.40
14850;DHT22;7517;48.400;11.770;2023-09-07T08:56:23;24.80;69.50
14850;DHT22;7517;48.400;11.770;2023-09-07T08:58:53;24.90;68.70
14850;DHT22;7517;48.400;11.770;2023-09-07T09:01:21;25.10;68.40
14850;DHT22;7517;48.400;11.770;2023-09-07T09:03:50;25.20;68.10
14850;DHT22;7517;48.400;11.770;2023-09-07T09:06:20;25.40;68.20
14850;DHT22;7517;48.400;11.770;2023-09-07T09:08:49;25.50;68.20
14850;DHT22;7517;48.400;11.770;2023-09-07T09:11:19;25.60;68.00
14850;DHT22;7517;48.400;11.770;2023-09-07T09:13:49;25.80;67.40
14850;DHT22;7517;48.400;11.770;2023-09-07T09:16:18;25.90;67.20
14850;DHT22;7517;48.400;11.770;2023-09-07T09:18:51;26.00;67.20
14850;DHT22;7517;48.400;11.770;2023-09-07T09:21:19;26.20;66.20
14850;DHT22;7517;48.400;11.770;2023-09-07T09:23:49;26.30;66.30
14850;DHT22;7517;48.400;11.770;2023-09-07T09:26:18;26.40;66.30
14850;DHT22;7517;48.400;11.770;2023-09-07T09:28:47;26.60;66.20
14850;DHT22;7517;48.400;11.770;2023-09-07T09:31:17;26.70;66.20
14850;DHT22;7517;48.400;11.770;2023-09-07T09:33:50;26.80;65.60
14850;DHT22;7517;48.400;11.770;2023-09-07T09:36:18;26.90;65.10
14850;DHT22;7517;48.400;11.770;2023-09-07T09:38:48;27.00;64.50
14850;DHT22;7517;48.400;11.770;2023-09-07T09:41:18;27.20;63.20
14850;DHT22;7517;48.400;11.770;2023-09-07T09:43:46;27.20;63.70
14850;DHT22;7517;48.400;11.770;2023-09-07T09:46:17;27.40;63.60
14850;DHT22;7517;48.400;11.770;2023-09-07T09:48:45;27.50;63.50
14850;DHT22;7517;48.400;11.770;2023-09-07T09:51:15;27.60;63.20
14850;DHT22;7517;48.400;11.770;2023-09-07T09:53:45;27.70;63.20
14850;DHT22;7517;48.400;11.770;2023-09-07T09:56:14;27.80;62.90
14850;DHT22;7517;48.400;11.770;2023-09-07T09:58:42;27.90;62.60
14850;DHT22;7517;48.400;11.770;2023-09-07T10:01:11;28.00;62.10
14850;DHT22;7517;48.400;11.770;2023-09-07T10:03:42;28.10;62.60
14850;DHT22;7517;48.400;11.770;2023-09-07T10:06:20;28.20;61.60
14850;DHT22;7517;48.400;11.770;2023-09-07T10:08:54;28.30;61.10
14850;DHT22;7517;48.400;11.770;2023-09-07T10:11:33;28.40;61.60
14850;DHT22;7517;48.400;11.770;2023-09-07T10:14:03;28.50;61.00
14850;DHT22;7517;48.400;11.770;2023-09-07T10:16:41;28.60;60.60
14850;DHT22;7517;48.400;11.770;2023-09-07T10:19:17;28.60;59.00
14850;DHT22;7517;48.400;11.770;2023-09-07T10:21:47;28.70;58.60
14850;DHT22;7517;48.400;11.770;2023-09-07T10:24:25;28.80;59.70
14850;DHT22;7517;48.400;11.770;2023-09-07T10:26:57;28.90;58.70
14850;DHT22;7517;48.400;11.770;2023-09-07T10:29:25;29.00;58.90
14850;DHT22;7517;48.400;11.770;2023-09-07T10:31:53;29.10;59.00
14850;DHT22;7517;48.400;11.770;2023-09-07T10:34:20;29.20;59.00
14850;DHT22;7517;48.400;11.770;2023-09-07T10:36:56;29.20;58.80
14850;DHT22;7517;48.400;11.770;2023-09-07T10:39:23;29.30;57.90
14850;DHT22;7517;48.400;11.770;2023-09-07T10:41:50;29.40;58.40
14850;DHT22;7517;48.400;11.770;2023-09-07T10:44:25;29.50;58.10
14850;DHT22;7517;48.400;11.770;2023-09-07T10:46:53;29.50;56.70
14850;DHT22;7517;48.400;11.770;2023-09-07T10:49:21;29.60;57.40
14850;DHT22;7517;48.400;11.770;2023-09-07T10:51:49;29.60;57.50
14850;DHT22;7517;48.400;11.770;2023-09-07T10:54:18;29.70;57.60
14850;DHT22;7517;48.400;11.770;2023-09-07T10:56:49;29.70;57.60
14850;DHT22;7517;48.400;11.770;2023-09-07T10:59:23;29.70;57.50
14850;DHT22;7517;48.400;11.770;2023-09-07T11:01:54;29.70;57.60
14850;DHT22;7517;48.400;11.770;2023-09-07T11:04:21;29.60;57.40
14850;DHT22;7517;48.400;11.770;2023-09-07T11:06:51;29.60;56.90
14850;DHT22;7517;48.400;11.770;2023-09-07T11:09:20;29.60;56.90
14850;DHT22;7517;48.400;11.770;2023-09-07T11:11:47;29.60;56.60
14850;DHT22;7517;48.400;11.770;2023-09-07T11:14:14;29.60;57.00
14850;DHT22;7517;48.400;11.770;2023-09-07T11:16:42;29.50;56.90
14850;DHT22;7517;48.400;11.770;2023-09-07T11:19:10;29.50;56.70
14850;DHT22;7517;48.400;11.770;2023-09-07T11:21:37;29.50;56.20
14850;DHT22;7517;48.400;11.770;2023-09-07T11:24:07;29.40;56.00
14850;DHT22;7517;48.400;11.770;2023-09-07T11:26:42;29.40;55.60
14850;DHT22;7517;48.400;11.770;2023-09-07T11:29:09;29.40;55.00
14850;DHT22;7517;48.400;11.770;2023-09-07T11:31:40;29.40;56.30
14850;DHT22;7517;48.400;11.770;2023-09-07T11:34:09;29.30;55.40
14850;DHT22;7517;48.400;11.770;2023-09-07T11:36:36;29.30;55.20
14850;DHT22;7517;48.400;11.770;2023-09-07T11:39:06;29.30;56.00
14850;DHT22;7517;48.400;11.770;2023-09-07T11:41:38;29.30;55.90
14850;DHT22;7517;48.400;11.770;2023-09-07T11:44:06;29.30;55.90
14850;DHT22;7517;48.400;11.770;2023-09-07T11:46:34;29.20;55.40
14850;DHT22;7517;48.400;11.770;2023-09-07T11:49:01;29.20;55.50
14850;DHT22;7517;48.400;11.770;2023-09-07T11:51:30;29.20;55.10
14850;DHT22;7517;48.400;11.770;2023-09-07T11:53:57;29.20;55.40
14850;DHT22;7517;48.400;11.770;2023-09-07T11:56:36;29.20;55.60
14850;DHT22;7517;48.400;11.770;2023-09-07T11:59:06;29.20;55.60
14850;DHT22;7517;48.400;11.770;2023-09-07T12:01:33;29.20;55.20
14850;DHT22;7517;48.400;11.770;2023-09-07T12:04:01;29.20;55.00
14850;DHT22;7517;48.400;11.770;2023-09-07T12:06:29;29.20;55.10
14850;DHT22;7517;48.400;11.770;2023-09-07T12:09:00;29.20;55.00
14850;DHT22;7517;48.400;11.770;2023-09-07T12:11:32;29.20;54.50
14850;DHT22;7517;48.400;11.770;2023-09-07T12:13:59;29.20;54.40
14850;DHT22;7517;48.400;11.770;2023-09-07T12:16:27;29.20;54.40
14850;DHT22;7517;48.400;11.770;2023-09-07T12:18:56;29.20;54.40
14850;DHT22;7517;48.400;11.770;2023-09-07T12:21:23;29.20;54.50
14850;DHT22;7517;48.400;11.770;2023-09-07T12:23:50;29.20;54.40
14850;DHT22;7517;48.400;11.770;2023-09-07T12:26:17;29.20;54.40
14850;DHT22;7517;48.400;11.770;2023-09-07T12:28:47;29.20;54.20
14850;DHT22;7517;48.400;11.770;2023-09-07T12:31:15;29.20;54.20
14850;DHT22;7517;48.400;11.770;2023-09-07T12:33:42;29.20;54.20
14850;DHT22;7517;48.400;11.770;2023-09-07T12:36:09;29.20;54.10
14850;DHT22;7517;48.400;11.770;2023-09-07T12:38:37;29.20;54.40
14850;DHT22;7517;48.400;11.770;2023-09-07T12:41:04;29.20;54.70
14850;DHT22;7517;48.400;11.770;2023-09-07T12:43:31;29.20;53.90
14850;DHT22;7517;48.400;11.770;2023-09-07T12:46:00;29.20;53.70
14850;DHT22;7517;48.400;11.770;2023-09-07T12:48:27;29.20;53.80
14850;DHT22;7517;48.400;11.770;2023-09-07T12:50:54;29.20;53.90
14850;DHT22;7517;48.400;11.770;2023-09-07T12:53:22;29.20;53.90
14850;DHT22;7517;48.400;11.770;2023-09-07T12:55:52;29.20;53.70
14850;DHT22;7517;48.400;11.770;2023-09-07T12:58:20;29.20;53.90
14850;DHT22;7517;48.400;11.770;2023-09-07T13:00:47;29.30;53.90
14850;DHT22;7517;48.400;11.770;2023-09-07T13:03:19;29.30;54.00
14850;DHT22;7517;48.400;11.770;2023-09-07T13:05:46;29.30;54.00
14850;DHT22;7517;48.400;11.770;2023-09-07T13:08:14;29.30;54.40
14850;DHT22;7517;48.400;11.770;2023-09-07T13:10:42;29.30;54.00
14850;DHT22;7517;48.400;11.770;2023-09-07T13:13:09;29.30;54.20
14850;DHT22;7517;48.400;11.770;2023-09-07T13:15:36;29.30;53.90
14850;DHT22;7517;48.400;11.770;2023-09-07T13:18:03;29.30;53.60
14850;DHT22;7517;48.400;11.770;2023-09-07T13:20:32;29.30;53.30
14850;DHT22;7517;48.400;11.770;2023-09-07T13:22:59;29.30;53.30
14850;DHT22;7517;48.400;11.770;2023-09-07T13:25:27;29.30;53.60
14850;DHT22;7517;48.400;11.770;2023-09-07T13:27:54;29.30;53.60
14850;DHT22;7517;48.400;11.770;2023-09-07T13:30:21;29.30;53.50
14850;DHT22;7517;48.400;11.770;2023-09-07T13:32:48;29.30;53.40
14850;DHT22;7517;48.400;11.770;2023-09-07T13:35:15;29.30;53.10
14850;DHT22;7517;48.400;11.770;2023-09-07T13:37:44;29.30;52.90
14850;DHT22;7517;48.400;11.770;2023-09-07T13:40:11;29.30;52.30
14850;DHT22;7517;48.400;11.770;2023-09-07T13:42:40;29.30;53.20
14850;DHT22;7517;48.400;11.770;2023-09-07T13:45:09;29.30;52.50
14850;DHT22;7517;48.400;11.770;2023-09-07T13:47:37;29.30;52.10
14850;DHT22;7517;48.400;11.770;2023-09-07T13:50:06;29.30;52.20
14850;DHT22;7517;48.400;11.770;2023-09-07T13:52:34;29.30;51.90
14850;DHT22;7517;48.400;11.770;2023-09-07T13:55:03;29.30;51.50
14850;DHT22;7517;48.400;11.770;2023-09-07T13:57:32;29.30;52.30
14850;DHT22;7517;48.400;11.770;2023-09-07T14:00:00;29.30;52.80
14850;DHT22;7517;48.400;11.770;2023-09-07T14:02:27;29.30;52.60
14850;DHT22;7517;48.400;11.770;2023-09-07T14:04:56;29.30;52.90
14850;DHT22;7517;48.400;11.770;2023-09-07T14:07:23;29.30;52.20
14850;DHT22;7517;48.400;11.770;2023-09-07T14:09:51;29.30;52.10
14850;DHT22;7517;48.400;11.770;2023-09-07T14:12:20;29.30;51.80
14850;DHT22;7517;48.400;11.770;2023-09-07T14:14:48;29.30;51.80
14850;DHT22;7517;48.400;11.770;2023-09-07T14:17:16;29.40;52.20
14850;DHT22;7517;48.400;11.770;2023-09-07T14:19:43;29.40;52.30
14850;DHT22;7517;48.400;11.770;2023-09-07T14:22:11;29.40;52.20
14850;DHT22;7517;48.400;11.770;2023-09-07T14:24:38;29.40;52.00
14850;DHT22;7517;48.400;11.770;2023-09-07T14:27:05;29.40;52.00
14850;DHT22;7517;48.400;11.770;2023-09-07T14:29:33;29.40;52.00
14850;DHT22;7517;48.400;11.770;2023-09-07T14:32:00;29.40;52.00
14850;DHT22;7517;48.400;11.770;2023-09-07T14:34:27;29.40;51.80
14850;DHT22;7517;48.400;11.770;2023-09-07T14:36:55;29.40;51.80
14850;DHT22;7517;48.400;11.770;2023-09-07T14:39:22;29.40;51.70
14850;DHT22;7517;48.400;11.770;2023-09-07T14:41:50;29.40;51.50
14850;DHT22;7517;48.400;11.770;2023-09-07T14:44:18;29.40;51.40
14850;DHT22;7517;48.400;11.770;2023-09-07T14:46:47;29.40;51.40
14850;DHT22;7517;48.400;11.770;2023-09-07T14:49:14;29.30;51.00
14850;DHT22;7517;48.400;11.770;2023-09-07T14:51:43;29.40;51.50
14850;DHT22;7517;48.400;11.770;2023-09-07T14:54:10;29.40;51.60
14850;DHT22;7517;48.400;11.770;2023-09-07T14:56:38;29.40;51.40
14850;DHT22;7517;48.400;11.770;2023-09-07T14:59:06;29.40;51.10
14850;DHT22;7517;48.400;11.770;2023-09-07T15:01:33;29.40;51.50
14850;DHT22;7517;48.400;11.770;2023-09-07T15:04:03;29.40;51.30
14850;DHT22;7517;48.400;11.770;2023-09-07T15:06:31;29.40;51.10
14850;DHT22;7517;48.400;11.770;2023-09-07T15:08:59;29.40;51.30
14850;DHT22;7517;48.400;11.770;2023-09-07T15:11:26;29.30;51.30
14850;DHT22;7517;48.400;11.770;2023-09-07T15:13:53;29.30;51.30
14850;DHT22;7517;48.400;11.770;2023-09-07T15:16:21;29.30;51.60
14850;DHT22;7517;48.400;11.770;2023-09-07T15:18:49;29.30;51.00
14850;DHT22;7517;48.400;11.770;2023-09-07T15:21:18;29.30;50.90
14850;DHT22;7517;48.400;11.770;2023-09-07T15:23:46;29.30;51.10
14850;DHT22;7517;48.400;11.770;2023-09-07T15:26:14;29.30;51.10
14850;DHT22;7517;48.400;11.770;2023-09-07T15:28:41;29.30;51.20
14850;DHT22;7517;48.400;11.770;2023-09-07T15:31:14;29.30;51.20
14850;DHT22;7517;48.400;11.770;2023-09-07T15:33:41;29.30;49.80
14850;DHT22;7517;48.400;11.770;2023-09-07T15:36:09;29.30;50.30